createdAt,value
2023-03-25T00:04:08.607Z,22.70
2023-03-25T00:09:10.368Z,22.72
2023-03-25T00:14:12.270Z,22.73
2023-03-25T00:19:15.541Z,22.74
2023-03-25T00:24:17.820Z,22.71
2023-03-25T00:29:19.223Z,22.76
2023-03-25T00:34:20.642Z,22.78
2023-03-25T00:39:22.009Z,22.73
2023-03-25T00:44:23.424Z,22.72
2023-03-25T00:49:24.993Z,22.75
2023-03-25T00:54:26.371Z,22.76
2023-03-25T00:59:27.769Z,22.72
2023-03-25T01:04:29.618Z,22.73
2023-03-25T01:09:31.264Z,22.75
2023-03-25T01:14:32.681Z,22.71
2023-03-25T01:19:34.056Z,22.72
2023-03-25T01:24:35.647Z,22.76
2023-03-25T01:29:37.106Z,22.74
2023-03-25T01:34:38.585Z,22.73
2023-03-25T01:39:40.163Z,22.74
2023-03-25T01:44:44.266Z,22.74
2023-03-25T01:49:45.814Z,22.71
2023-03-25T01:54:47.266Z,22.74
2023-03-25T01:59:48.642Z,22.77
2023-03-25T02:04:58.892Z,22.71
2023-03-25T02:10:02.214Z,22.70
2023-03-25T02:15:05.886Z,22.76
2023-03-25T02:20:35.889Z,22.73
2023-03-25T02:26:32.736Z,22.70
2023-03-25T02:31:49.255Z,22.74
2023-03-25T02:37:00.039Z,22.76
2023-03-25T02:42:24.354Z,22.70
2023-03-25T02:47:27.801Z,22.73
2023-03-25T02:52:38.101Z,22.73
2023-03-25T02:57:41.611Z,22.72
2023-03-25T03:03:00.373Z,22.73
2023-03-25T03:08:19.513Z,22.74
2023-03-25T03:14:02.381Z,22.73
2023-03-25T03:19:13.705Z,22.73
2023-03-25T03:24:19.218Z,22.74
2023-03-25T03:29:26.275Z,22.71
2023-03-25T03:34:32.439Z,22.68
2023-03-25T03:39:36.833Z,22.74
2023-03-25T03:44:38.796Z,22.75
2023-03-25T03:49:46.647Z,22.70
2023-03-25T03:54:56.681Z,22.75
2023-03-25T04:00:03.883Z,22.75
2023-03-25T04:05:11.297Z,22.69
2023-03-25T04:10:18.857Z,22.71
2023-03-25T04:15:20.258Z,22.76
2023-03-25T04:20:23.779Z,22.72
2023-03-25T04:25:25.534Z,22.71
2023-03-25T04:30:27.725Z,22.74
2023-03-25T04:35:29.229Z,22.72
2023-03-25T04:40:30.790Z,22.72
2023-03-25T04:45:36.219Z,22.70
2023-03-25T04:50:37.594Z,22.75
2023-03-25T04:55:47.804Z,22.74
2023-03-25T05:00:51.215Z,22.71
2023-03-25T05:05:53.311Z,22.74
2023-03-25T05:10:55.105Z,22.72
2023-03-25T05:15:56.536Z,22.71
2023-03-25T05:20:57.998Z,22.74
2023-03-25T05:25:59.759Z,22.72
2023-03-25T05:31:01.294Z,22.72
2023-03-25T05:36:04.186Z,22.72
2023-03-25T05:41:10.502Z,22.77
2023-03-25T05:46:12.034Z,22.75
2023-03-25T05:51:18.419Z,22.70
2023-03-25T05:56:21.124Z,22.76
2023-03-25T06:01:32.660Z,22.76
2023-03-25T06:06:35.919Z,22.75
2023-03-25T06:11:40.198Z,22.73
2023-03-25T06:16:41.592Z,22.75
2023-03-25T06:21:43.410Z,22.72
2023-03-25T06:26:44.785Z,22.76
2023-03-25T06:31:46.171Z,22.72
2023-03-25T06:36:49.918Z,22.73
2023-03-25T06:41:51.378Z,22.74
2023-03-25T06:46:52.938Z,22.74
2023-03-25T06:51:54.324Z,22.74
2023-03-25T06:56:55.770Z,22.74
2023-03-25T07:01:57.336Z,22.78
2023-03-25T07:06:58.742Z,22.78
2023-03-25T07:12:00.182Z,22.73
2023-03-25T07:17:01.565Z,22.79
2023-03-25T07:22:02.942Z,22.80
2023-03-25T07:27:04.392Z,22.75
2023-03-25T07:32:06.215Z,22.78
2023-03-25T07:37:10.707Z,22.75
2023-03-25T07:42:12.108Z,22.77
2023-03-25T07:47:13.492Z,22.73
2023-03-25T07:52:14.870Z,22.76
2023-03-25T07:57:16.376Z,22.77
2023-03-25T08:02:17.806Z,22.77
2023-03-25T08:07:19.234Z,22.80
2023-03-25T08:12:20.808Z,22.81
2023-03-25T08:17:22.662Z,22.76
2023-03-25T08:22:24.055Z,22.77
2023-03-25T08:27:25.819Z,22.81
2023-03-25T08:32:28.048Z,22.81
2023-03-25T08:37:30.736Z,22.75
2023-03-25T08:42:32.119Z,22.80
2023-03-25T08:47:33.614Z,22.80
2023-03-25T08:52:35.011Z,22.76
2023-03-25T08:57:37.634Z,22.79
2023-03-25T09:02:39.065Z,22.78
2023-03-25T09:07:40.479Z,22.81
2023-03-25T09:12:42.028Z,22.82
2023-03-25T09:17:43.457Z,22.84
2023-03-25T09:22:44.935Z,22.77
2023-03-25T09:27:46.323Z,22.77
2023-03-25T09:32:47.744Z,22.79
2023-03-25T09:37:51.834Z,22.78
2023-03-25T09:43:01.550Z,22.80
2023-03-25T09:48:12.944Z,22.84
2023-03-25T09:53:27.210Z,22.80
2023-03-25T09:58:48.364Z,22.79
2023-03-25T10:03:58.072Z,22.82
2023-03-25T10:09:18.261Z,22.84
2023-03-25T10:14:58.395Z,22.85
2023-03-25T10:20:27.404Z,22.87
2023-03-25T10:25:30.324Z,22.78
2023-03-25T10:30:36.399Z,22.83
2023-03-25T10:35:40.673Z,22.84
2023-03-25T10:40:49.870Z,22.85
2023-03-25T10:45:53.353Z,22.83
2023-03-25T10:51:19.054Z,22.88
2023-03-25T10:56:21.889Z,22.88
2023-03-25T11:01:38.115Z,22.84
2023-03-25T11:06:45.776Z,22.89
2023-03-25T11:11:47.592Z,22.91
2023-03-25T11:16:58.110Z,22.84
2023-03-25T11:22:02.479Z,22.87
2023-03-25T11:27:03.966Z,22.89
2023-03-25T11:32:16.271Z,22.88
2023-03-25T11:37:19.175Z,22.88
2023-03-25T11:42:38.506Z,22.85
2023-03-25T11:47:41.012Z,22.87
2023-03-25T11:52:45.798Z,22.83
2023-03-25T11:57:47.674Z,22.83
2023-03-25T12:02:49.081Z,22.89
2023-03-25T12:07:51.480Z,22.88
2023-03-25T12:13:07.830Z,22.82
2023-03-25T12:18:16.407Z,22.84
2023-03-25T12:23:38.873Z,22.87
2023-03-25T12:29:17.227Z,22.81
2023-03-25T12:34:23.284Z,22.82
2023-03-25T12:39:35.786Z,22.83
2023-03-25T12:44:50.713Z,22.80
2023-03-25T12:50:04.053Z,22.82
2023-03-25T12:55:42.898Z,22.84
2023-03-25T13:01:18.468Z,22.84
2023-03-25T13:06:44.470Z,22.82
2023-03-25T13:11:49.334Z,22.88
2023-03-25T13:16:51.796Z,22.85
2023-03-25T13:21:57.250Z,22.83
2023-03-25T13:26:58.690Z,22.83
2023-03-25T13:32:02.038Z,22.85
2023-03-25T13:37:08.799Z,22.84
2023-03-25T13:42:15.589Z,22.82
2023-03-25T13:47:31.988Z,22.87
2023-03-25T13:52:39.514Z,22.85
2023-03-25T13:58:09.026Z,22.84
2023-03-25T14:03:13.008Z,22.85
2023-03-25T14:08:33.519Z,22.87
2023-03-25T14:13:45.930Z,22.82
2023-03-25T14:18:49.371Z,22.84
2023-03-25T14:24:00.713Z,22.85
2023-03-25T14:29:08.103Z,22.85
2023-03-25T14:34:09.302Z,22.85
2023-03-25T14:39:12.386Z,22.81
2023-03-25T14:44:18.416Z,22.83
2023-03-25T14:49:23.231Z,22.84
2023-03-25T14:54:27.771Z,22.82
2023-03-25T14:59:36.861Z,22.82
2023-03-25T15:04:38.277Z,22.84
2023-03-25T15:09:49.612Z,22.81
2023-03-25T15:14:54.699Z,22.78
2023-03-25T15:20:23.020Z,22.84
2023-03-25T15:25:24.403Z,22.83
2023-03-25T15:30:32.017Z,22.79
2023-03-25T15:35:50.725Z,22.81
2023-03-25T15:41:02.357Z,22.82
2023-03-25T15:46:24.606Z,22.79
2023-03-25T15:51:39.694Z,22.83
2023-03-25T15:56:42.248Z,22.82
2023-03-25T16:01:44.442Z,22.80
2023-03-25T16:06:47.333Z,22.82
2023-03-25T16:11:48.711Z,22.83
2023-03-25T16:16:55.031Z,22.84
2023-03-25T16:21:56.467Z,22.84
2023-03-25T16:26:57.839Z,22.86
2023-03-25T16:32:01.375Z,22.82
2023-03-25T16:37:02.763Z,22.76
2023-03-25T16:42:06.786Z,22.80
2023-03-25T16:47:09.159Z,22.84
2023-03-25T16:52:14.202Z,22.82
2023-03-25T16:57:17.599Z,22.81
2023-03-25T17:02:40.674Z,22.84
2023-03-25T17:07:42.485Z,22.81
2023-03-25T17:12:43.858Z,22.82
2023-03-25T17:17:49.420Z,22.85
2023-03-25T17:22:59.499Z,22.80
2023-03-25T17:28:18.242Z,22.80
2023-03-25T17:33:20.348Z,22.80
2023-03-25T17:38:41.922Z,22.78
2023-03-25T17:43:45.184Z,22.77
2023-03-25T17:48:46.855Z,22.81
2023-03-25T17:53:48.573Z,22.80
2023-03-25T17:58:49.948Z,22.79
2023-03-25T18:03:51.642Z,22.84
2023-03-25T18:08:53.066Z,22.83
2023-03-25T18:13:54.590Z,22.78
2023-03-25T18:18:56.001Z,22.81
2023-03-25T18:23:57.406Z,22.80
2023-03-25T18:28:58.838Z,22.80
2023-03-25T18:34:00.218Z,22.81
2023-03-25T18:39:01.907Z,22.83
2023-03-25T18:44:03.287Z,22.80
2023-03-25T18:49:11.055Z,22.83
2023-03-25T18:54:12.473Z,22.83
2023-03-25T18:59:16.321Z,22.80
2023-03-25T19:04:18.120Z,22.79
2023-03-25T19:09:22.490Z,22.83
2023-03-25T19:14:23.906Z,22.84
2023-03-25T19:19:25.327Z,22.82
2023-03-25T19:24:27.190Z,22.85
2023-03-25T19:29:29.129Z,22.83
2023-03-25T19:34:31.254Z,22.81
2023-03-25T19:39:32.734Z,22.82
2023-03-25T19:44:34.123Z,22.84
2023-03-25T19:49:40.055Z,22.82
2023-03-25T19:54:42.010Z,22.85
2023-03-25T19:59:44.104Z,22.87
2023-03-25T20:04:45.549Z,22.83
2023-03-25T20:09:46.928Z,22.79
2023-03-25T20:14:48.325Z,22.82
2023-03-25T20:19:49.746Z,22.77
2023-03-25T20:24:51.116Z,22.81
2023-03-25T20:29:52.504Z,22.87
2023-03-25T20:34:53.939Z,22.85
2023-03-25T20:39:55.325Z,22.85
2023-03-25T20:44:56.713Z,22.85
2023-03-25T20:49:58.519Z,22.86
2023-03-25T20:54:59.966Z,22.80
2023-03-25T21:00:01.350Z,22.84
2023-03-25T21:05:03.643Z,22.83
2023-03-25T21:10:06.507Z,22.80
2023-03-25T21:15:09.076Z,22.87
2023-03-25T21:20:10.737Z,22.88
2023-03-25T21:25:14.036Z,22.82
2023-03-25T21:30:15.504Z,22.81
2023-03-25T21:35:17.048Z,22.83
2023-03-25T21:40:18.651Z,22.81
2023-03-25T21:45:20.132Z,22.83
2023-03-25T21:50:21.527Z,22.86
2023-03-25T21:55:22.948Z,22.82
2023-03-25T22:00:25.295Z,22.85
2023-03-25T22:05:31.026Z,22.87
2023-03-25T22:10:32.773Z,22.80
2023-03-25T22:15:34.434Z,22.85
2023-03-25T22:20:36.965Z,22.87
2023-03-25T22:25:38.551Z,22.83
2023-03-25T22:30:39.986Z,22.82
2023-03-25T22:35:41.503Z,22.86
2023-03-25T22:40:42.913Z,22.83
2023-03-25T22:45:44.299Z,22.80
2023-03-25T22:50:45.790Z,22.86
2023-03-25T22:55:54.888Z,22.81
2023-03-25T23:00:57.327Z,22.83
2023-03-25T23:06:06.415Z,22.84
2023-03-25T23:11:11.635Z,22.82
2023-03-25T23:16:14.476Z,22.78
2023-03-25T23:21:17.831Z,22.82
2023-03-25T23:26:24.526Z,22.84
2023-03-25T23:31:27.872Z,22.84
2023-03-25T23:36:30.128Z,22.84
2023-03-25T23:41:31.529Z,22.82
2023-03-25T23:46:33.021Z,22.80
2023-03-25T23:51:37.678Z,22.80
2023-03-25T23:56:39.145Z,22.83
